sensor_id;sensor_type;location;lat;lon;timestamp;temperature;humidity
31639;DHT22;18248;51.522;7.020;2022-11-14T00:00:02;7.00;99.90
31639;DHT22;18248;51.522;7.020;2022-11-14T00:03:02;7.00;99.90
31639;DHT22;18248;51.522;7.020;2022-11-14T00:06:04;7.00;99.90
31639;DHT22;18248;51.522;7.020;2022-11-14T00:09:04;7.00;99.90
31639;DHT22;18248;51.522;7.020;2022-11-14T00:12:11;6.90;99.90
31639;DHT22;18248;51.522;7.020;2022-11-14T00:15:10;6.90;99.90
31639;DHT22;18248;51.522;7.020;2022-11-14T00:18:09;6.90;99.90
31639;DHT22;18248;51.522;7.020;2022-11-14T00:21:08;6.90;99.90
31639;DHT22;18248;51.522;7.020;2022-11-14T00:24:06;6.90;99.90
31639;DHT22;18248;51.522;7.020;2022-11-14T00:27:05;6.90;99.90
31639;DHT22;18248;51.522;7.020;2022-11-14T00:30:04;6.80;99.90
31639;DHT22;18248;51.522;7.020;2022-11-14T00:33:02;6.80;99.90
31639;DHT22;18248;51.522;7.020;2022-11-14T00:36:01;6.80;99.90
31639;DHT22;18248;51.522;7.020;2022-11-14T00:39:00;6.80;99.90
31639;DHT22;18248;51.522;7.020;2022-11-14T00:41:58;6.80;99.90
31639;DHT22;18248;51.522;7.020;2022-11-14T00:44:57;6.80;99.90
31639;DHT22;18248;51.522;7.020;2022-11-14T00:47:55;6.80;99.90
31639;DHT22;18248;51.522;7.020;2022-11-14T00:50:54;6.70;99.90
31639;DHT22;18248;51.522;7.020;2022-11-14T00:53:53;6.70;99.90
31639;DHT22;18248;51.522;7.020;2022-11-14T00:56:51;6.70;99.90
31639;DHT22;18248;51.522;7.020;2022-11-14T00:59:50;6.70;99.90
31639;DHT22;18248;51.522;7.020;2022-11-14T01:02:48;6.70;99.90
31639;DHT22;18248;51.522;7.020;2022-11-14T01:05:49;6.60;99.90
31639;DHT22;18248;51.522;7.020;2022-11-14T01:08:49;6.60;99.90
31639;DHT22;18248;51.522;7.020;2022-11-14T01:11:48;6.60;99.90
31639;DHT22;18248;51.522;7.020;2022-11-14T01:14:48;6.60;99.90
31639;DHT22;18248;51.522;7.020;2022-11-14T01:17:46;6.50;99.90
31639;DHT22;18248;51.522;7.020;2022-11-14T01:20:46;6.50;99.90
31639;DHT22;18248;51.522;7.020;2022-11-14T01:23:46;6.50;99.90
31639;DHT22;18248;51.522;7.020;2022-11-14T01:26:44;6.50;99.90
31639;DHT22;18248;51.522;7.020;2022-11-14T01:29:43;6.40;99.90
31639;DHT22;18248;51.522;7.020;2022-11-14T01:32:41;6.40;99.90
31639;DHT22;18248;51.522;7.020;2022-11-14T01:35:40;6.40;99.90
31639;DHT22;18248;51.522;7.020;2022-11-14T01:38:38;6.40;99.90
31639;DHT22;18248;51.522;7.020;2022-11-14T01:41:37;6.40;99.90
31639;DHT22;18248;51.522;7.020;2022-11-14T01:44:47;6.30;99.90
31639;DHT22;18248;51.522;7.020;2022-11-14T01:47:46;6.30;99.90
31639;DHT22;18248;51.522;7.020;2022-11-14T01:50:47;6.30;99.90
31639;DHT22;18248;51.522;7.020;2022-11-14T01:53:50;6.20;99.90
31639;DHT22;18248;51.522;7.020;2022-11-14T01:56:55;6.20;99.90
31639;DHT22;18248;51.522;7.020;2022-11-14T01:59:57;6.20;99.90
31639;DHT22;18248;51.522;7.020;2022-11-14T02:02:57;6.20;99.90
31639;DHT22;18248;51.522;7.020;2022-11-14T02:05:57;6.10;99.90
31639;DHT22;18248;51.522;7.020;2022-11-14T02:08:59;6.10;99.90
31639;DHT22;18248;51.522;7.020;2022-11-14T02:11:59;6.10;99.90
31639;DHT22;18248;51.522;7.020;2022-11-14T02:14:58;6.00;99.90
31639;DHT22;18248;51.522;7.020;2022-11-14T02:17:59;6.00;99.90
31639;DHT22;18248;51.522;7.020;2022-11-14T02:20:58;6.00;99.90
31639;DHT22;18248;51.522;7.020;2022-11-14T02:23:56;5.90;99.90
31639;DHT22;18248;51.522;7.020;2022-11-14T02:26:55;5.90;99.90
31639;DHT22;18248;51.522;7.020;2022-11-14T02:29:53;5.80;99.90
31639;DHT22;18248;51.522;7.020;2022-11-14T02:32:52;5.80;99.90
31639;DHT22;18248;51.522;7.020;2022-11-14T02:35:51;5.80;99.90
31639;DHT22;18248;51.522;7.020;2022-11-14T02:38:49;5.70;99.90
31639;DHT22;18248;51.522;7.020;2022-11-14T02:41:49;5.70;99.90
31639;DHT22;18248;51.522;7.020;2022-11-14T02:44:48;5.70;99.90
31639;DHT22;18248;51.522;7.020;2022-11-14T02:47:46;5.60;99.90
31639;DHT22;18248;51.522;7.020;2022-11-14T02:50:48;5.60;99.90
31639;DHT22;18248;51.522;7.020;2022-11-14T02:53:47;5.60;99.90
31639;DHT22;18248;51.522;7.020;2022-11-14T02:56:46;5.60;99.90
31639;DHT22;18248;51.522;7.020;2022-11-14T02:59:44;5.60;99.90
31639;DHT22;18248;51.522;7.020;2022-11-14T03:02:43;5.50;99.90
31639;DHT22;18248;51.522;7.020;2022-11-14T03:05:41;5.50;99.90
31639;DHT22;18248;51.522;7.020;2022-11-14T03:08:40;5.40;99.90
31639;DHT22;18248;51.522;7.020;2022-11-14T03:11:38;5.30;99.90
31639;DHT22;18248;51.522;7.020;2022-11-14T03:14:37;5.20;99.90
31639;DHT22;18248;51.522;7.020;2022-11-14T03:17:35;5.20;99.90
31639;DHT22;18248;51.522;7.020;2022-11-14T03:20:34;5.10;99.90
31639;DHT22;18248;51.522;7.020;2022-11-14T03:23:32;5.10;99.90
31639;DHT22;18248;51.522;7.020;2022-11-14T03:26:31;5.10;99.90
31639;DHT22;18248;51.522;7.020;2022-11-14T03:29:30;5.00;99.90
31639;DHT22;18248;51.522;7.020;2022-11-14T03:32:28;5.10;99.90
31639;DHT22;18248;51.522;7.020;2022-11-14T03:35:27;5.10;99.90
31639;DHT22;18248;51.522;7.020;2022-11-14T03:38:25;5.10;99.90
31639;DHT22;18248;51.522;7.020;2022-11-14T03:41:24;5.10;99.90
31639;DHT22;18248;51.522;7.020;2022-11-14T03:44:22;5.10;99.90
31639;DHT22;18248;51.522;7.020;2022-11-14T03:47:21;5.10;99.90
31639;DHT22;18248;51.522;7.020;2022-11-14T03:50:19;5.10;99.90
31639;DHT22;18248;51.522;7.020;2022-11-14T03:53:18;5.10;99.90
31639;DHT22;18248;51.522;7.020;2022-11-14T03:56:16;5.00;99.90
31639;DHT22;18248;51.522;7.020;2022-11-14T03:59:15;5.10;99.90
31639;DHT22;18248;51.522;7.020;2022-11-14T04:02:14;5.00;99.90
31639;DHT22;18248;51.522;7.020;2022-11-14T04:05:13;5.00;99.90
31639;DHT22;18248;51.522;7.020;2022-11-14T04:08:12;5.00;99.90
31639;DHT22;18248;51.522;7.020;2022-11-14T04:11:13;5.00;99.90
31639;DHT22;18248;51.522;7.020;2022-11-14T04:14:12;5.00;99.90
31639;DHT22;18248;51.522;7.020;2022-11-14T04:17:13;4.90;99.90
31639;DHT22;18248;51.522;7.020;2022-11-14T04:20:12;4.90;99.90
31639;DHT22;18248;51.522;7.020;2022-11-14T04:23:11;4.90;99.90
31639;DHT22;18248;51.522;7.020;2022-11-14T04:26:10;4.90;99.90
31639;DHT22;18248;51.522;7.020;2022-11-14T04:29:08;4.90;99.90
31639;DHT22;18248;51.522;7.020;2022-11-14T04:32:08;4.90;99.90
31639;DHT22;18248;51.522;7.020;2022-11-14T04:35:07;4.90;99.90
31639;DHT22;18248;51.522;7.020;2022-11-14T04:38:05;4.90;99.90
31639;DHT22;18248;51.522;7.020;2022-11-14T04:41:04;5.00;99.90
31639;DHT22;18248;51.522;7.020;2022-11-14T04:44:02;4.90;99.90
31639;DHT22;18248;51.522;7.020;2022-11-14T04:47:01;4.90;99.90
31639;DHT22;18248;51.522;7.020;2022-11-14T04:49:59;4.90;99.90
31639;DHT22;18248;51.522;7.020;2022-11-14T04:52:58;4.90;99.90
31639;DHT22;18248;51.522;7.020;2022-11-14T04:55:56;4.90;99.90
31639;DHT22;18248;51.522;7.020;2022-11-14T04:58:55;4.90;99.90
31639;DHT22;18248;51.522;7.020;2022-11-14T05:01:55;4.90;99.90
31639;DHT22;18248;51.522;7.020;2022-11-14T05:04:53;4.90;99.90
31639;DHT22;18248;51.522;7.020;2022-11-14T05:07:53;4.80;99.90
31639;DHT22;18248;51.522;7.020;2022-11-14T05:10:52;4.80;99.90
31639;DHT22;18248;51.522;7.020;2022-11-14T05:13:50;4.80;99.90
31639;DHT22;18248;51.522;7.020;2022-11-14T05:16:49;4.80;99.90
31639;DHT22;18248;51.522;7.020;2022-11-14T05:19:47;4.90;99.90
31639;DHT22;18248;51.522;7.020;2022-11-14T05:22:46;4.90;99.90
31639;DHT22;18248;51.522;7.020;2022-11-14T05:25:44;4.80;99.90
31639;DHT22;18248;51.522;7.020;2022-11-14T05:28:44;4.80;99.90
31639;DHT22;18248;51.522;7.020;2022-11-14T05:31:44;4.80;99.90
31639;DHT22;18248;51.522;7.020;2022-11-14T05:34:42;4.80;99.90
31639;DHT22;18248;51.522;7.020;2022-11-14T05:37:41;4.70;99.90
31639;DHT22;18248;51.522;7.020;2022-11-14T05:40:39;4.70;99.90
31639;DHT22;18248;51.522;7.020;2022-11-14T05:43:38;4.70;99.90
31639;DHT22;18248;51.522;7.020;2022-11-14T05:46:37;4.80;99.90
31639;DHT22;18248;51.522;7.020;2022-11-14T05:49:36;4.70;99.90
31639;DHT22;18248;51.522;7.020;2022-11-14T05:52:36;4.70;99.90
31639;DHT22;18248;51.522;7.020;2022-11-14T05:55:34;4.70;99.90
31639;DHT22;18248;51.522;7.020;2022-11-14T05:58:33;4.70;99.90
31639;DHT22;18248;51.522;7.020;2022-11-14T06:01:32;4.80;99.90
31639;DHT22;18248;51.522;7.020;2022-11-14T06:04:31;4.80;99.90
31639;DHT22;18248;51.522;7.020;2022-11-14T06:07:29;4.70;99.90
31639;DHT22;18248;51.522;7.020;2022-11-14T06:10:28;4.70;99.90
31639;DHT22;18248;51.522;7.020;2022-11-14T06:13:27;4.60;99.90
31639;DHT22;18248;51.522;7.020;2022-11-14T06:16:26;4.60;99.90
31639;DHT22;18248;51.522;7.020;2022-11-14T06:19:25;4.50;99.90
31639;DHT22;18248;51.522;7.020;2022-11-14T06:22:24;4.50;99.90
31639;DHT22;18248;51.522;7.020;2022-11-14T06:25:22;4.40;99.90
31639;DHT22;18248;51.522;7.020;2022-11-14T06:28:20;4.40;99.90
31639;DHT22;18248;51.522;7.020;2022-11-14T06:31:19;4.40;99.90
31639;DHT22;18248;51.522;7.020;2022-11-14T06:34:18;4.40;99.90
31639;DHT22;18248;51.522;7.020;2022-11-14T06:37:17;4.30;99.90
31639;DHT22;18248;51.522;7.020;2022-11-14T06:40:15;4.30;99.90
31639;DHT22;18248;51.522;7.020;2022-11-14T06:43:13;4.40;99.90
31639;DHT22;18248;51.522;7.020;2022-11-14T06:46:15;4.40;99.90
31639;DHT22;18248;51.522;7.020;2022-11-14T06:49:14;4.40;99.90
31639;DHT22;18248;51.522;7.020;2022-11-14T06:52:13;4.40;99.90
31639;DHT22;18248;51.522;7.020;2022-11-14T06:55:11;4.40;99.90
31639;DHT22;18248;51.522;7.020;2022-11-14T06:58:10;4.40;99.90
31639;DHT22;18248;51.522;7.020;2022-11-14T07:01:23;4.30;99.90
31639;DHT22;18248;51.522;7.020;2022-11-14T07:04:23;4.30;99.90
31639;DHT22;18248;51.522;7.020;2022-11-14T07:07:22;4.30;99.90
31639;DHT22;18248;51.522;7.020;2022-11-14T07:10:24;4.30;99.90
31639;DHT22;18248;51.522;7.020;2022-11-14T07:13:22;4.30;99.90
31639;DHT22;18248;51.522;7.020;2022-11-14T07:16:29;4.30;99.90
31639;DHT22;18248;51.522;7.020;2022-11-14T07:19:27;4.30;99.90
31639;DHT22;18248;51.522;7.020;2022-11-14T07:22:26;4.20;99.90
31639;DHT22;18248;51.522;7.020;2022-11-14T07:25:24;4.20;99.90
31639;DHT22;18248;51.522;7.020;2022-11-14T07:28:24;4.30;99.90
31639;DHT22;18248;51.522;7.020;2022-11-14T07:31:23;4.30;99.90
31639;DHT22;18248;51.522;7.020;2022-11-14T07:34:21;4.30;99.90
31639;DHT22;18248;51.522;7.020;2022-11-14T07:37:20;4.40;99.90
31639;DHT22;18248;51.522;7.020;2022-11-14T07:40:18;4.40;99.90
31639;DHT22;18248;51.522;7.020;2022-11-14T07:43:17;4.40;99.90
31639;DHT22;18248;51.522;7.020;2022-11-14T07:46:16;4.40;99.90
31639;DHT22;18248;51.522;7.020;2022-11-14T07:49:15;4.50;99.90
31639;DHT22;18248;51.522;7.020;2022-11-14T07:52:14;4.50;99.90
31639;DHT22;18248;51.522;7.020;2022-11-14T07:55:12;4.50;99.90
31639;DHT22;18248;51.522;7.020;2022-11-14T07:58:11;4.50;99.90
31639;DHT22;18248;51.522;7.020;2022-11-14T08:01:12;4.60;99.90
31639;DHT22;18248;51.522;7.020;2022-11-14T08:04:11;4.60;99.90
31639;DHT22;18248;51.522;7.020;2022-11-14T08:07:09;4.70;99.90
31639;DHT22;18248;51.522;7.020;2022-11-14T08:10:09;4.80;99.90
31639;DHT22;18248;51.522;7.020;2022-11-14T08:13:09;4.80;99.90
31639;DHT22;18248;51.522;7.020;2022-11-14T08:16:09;4.90;99.90
31639;DHT22;18248;51.522;7.020;2022-11-14T08:19:08;5.00;99.90
31639;DHT22;18248;51.522;7.020;2022-11-14T08:22:06;5.00;99.90
31639;DHT22;18248;51.522;7.020;2022-11-14T08:25:05;5.10;99.90
31639;DHT22;18248;51.522;7.020;2022-11-14T08:28:04;5.20;99.90
31639;DHT22;18248;51.522;7.020;2022-11-14T08:31:03;5.20;99.90
31639;DHT22;18248;51.522;7.020;2022-11-14T08:34:02;5.40;99.90
31639;DHT22;18248;51.522;7.020;2022-11-14T08:37:01;5.40;99.90
31639;DHT22;18248;51.522;7.020;2022-11-14T08:40:00;5.50;99.90
31639;DHT22;18248;51.522;7.020;2022-11-14T08:43:00;5.60;99.90
31639;DHT22;18248;51.522;7.020;2022-11-14T08:46:00;5.70;99.90
31639;DHT22;18248;51.522;7.020;2022-11-14T08:49:00;5.80;99.90
31639;DHT22;18248;51.522;7.020;2022-11-14T08:51:59;5.90;99.90
31639;DHT22;18248;51.522;7.020;2022-11-14T08:54:57;6.00;99.90
31639;DHT22;18248;51.522;7.020;2022-11-14T08:57:56;6.10;99.90
31639;DHT22;18248;51.522;7.020;2022-11-14T09:01:00;6.30;99.90
31639;DHT22;18248;51.522;7.020;2022-11-14T09:03:59;6.50;99.90
31639;DHT22;18248;51.522;7.020;2022-11-14T09:07:01;6.70;99.90
31639;DHT22;18248;51.522;7.020;2022-11-14T09:09:59;6.90;99.90
31639;DHT22;18248;51.522;7.020;2022-11-14T09:12:59;7.30;99.90
31639;DHT22;18248;51.522;7.020;2022-11-14T09:15:58;7.50;99.90
31639;DHT22;18248;51.522;7.020;2022-11-14T09:18:57;7.60;99.90
31639;DHT22;18248;51.522;7.020;2022-11-14T09:21:55;7.80;99.90
31639;DHT22;18248;51.522;7.020;2022-11-14T09:24:54;8.00;99.90
31639;DHT22;18248;51.522;7.020;2022-11-14T09:27:52;8.20;99.90
31639;DHT22;18248;51.522;7.020;2022-11-14T09:30:51;8.30;99.90
31639;DHT22;18248;51.522;7.020;2022-11-14T09:33:49;8.40;99.90
31639;DHT22;18248;51.522;7.020;2022-11-14T09:36:48;8.50;99.90
31639;DHT22;18248;51.522;7.020;2022-11-14T09:39:46;8.60;99.90
31639;DHT22;18248;51.522;7.020;2022-11-14T09:42:58;8.70;99.90
31639;DHT22;18248;51.522;7.020;2022-11-14T09:45:58;8.80;99.90
31639;DHT22;18248;51.522;7.020;2022-11-14T09:48:58;8.90;99.90
31639;DHT22;18248;51.522;7.020;2022-11-14T09:52:14;9.00;99.90
31639;DHT22;18248;51.522;7.020;2022-11-14T09:55:28;9.10;99.90
31639;DHT22;18248;51.522;7.020;2022-11-14T09:58:27;9.10;99.90
31639;DHT22;18248;51.522;7.020;2022-11-14T10:28:13;9.50;99.90
31639;DHT22;18248;51.522;7.020;2022-11-14T10:37:39;9.60;99.90
31639;DHT22;18248;51.522;7.020;2022-11-14T10:40:43;9.70;99.90
31639;DHT22;18248;51.522;7.020;2022-11-14T10:43:47;9.60;99.90
31639;DHT22;18248;51.522;7.020;2022-11-14T10:47:00;9.60;99.90
31639;DHT22;18248;51.522;7.020;2022-11-14T10:53:26;9.60;99.90
31639;DHT22;18248;51.522;7.020;2022-11-14T10:56:27;9.60;99.90
31639;DHT22;18248;51.522;7.020;2022-11-14T10:59:25;9.70;99.90
31639;DHT22;18248;51.522;7.020;2022-11-14T11:02:25;9.70;99.90
31639;DHT22;18248;51.522;7.020;2022-11-14T11:05:27;9.70;99.90
31639;DHT22;18248;51.522;7.020;2022-11-14T11:08:27;9.70;99.90
31639;DHT22;18248;51.522;7.020;2022-11-14T11:11:55;9.80;99.90
31639;DHT22;18248;51.522;7.020;2022-11-14T11:15:13;9.80;99.90
31639;DHT22;18248;51.522;7.020;2022-11-14T11:18:29;9.80;99.90
31639;DHT22;18248;51.522;7.020;2022-11-14T11:21:46;9.90;99.90
31639;DHT22;18248;51.522;7.020;2022-11-14T11:24:45;9.90;99.90
31639;DHT22;18248;51.522;7.020;2022-11-14T11:27:44;10.00;99.90
31639;DHT22;18248;51.522;7.020;2022-11-14T11:31:01;10.10;99.90
31639;DHT22;18248;51.522;7.020;2022-11-14T11:34:07;10.20;99.90
31639;DHT22;18248;51.522;7.020;2022-11-14T11:37:17;10.30;99.90
31639;DHT22;18248;51.522;7.020;2022-11-14T11:40:21;10.40;99.90
31639;DHT22;18248;51.522;7.020;2022-11-14T11:43:26;10.40;99.90
31639;DHT22;18248;51.522;7.020;2022-11-14T11:49:48;10.70;99.90
31639;DHT22;18248;51.522;7.020;2022-11-14T11:53:00;10.80;99.90
31639;DHT22;18248;51.522;7.020;2022-11-14T11:56:26;10.80;99.90
31639;DHT22;18248;51.522;7.020;2022-11-14T11:59:47;10.70;99.90
31639;DHT22;18248;51.522;7.020;2022-11-14T12:02:50;10.70;99.90
31639;DHT22;18248;51.522;7.020;2022-11-14T12:09:10;10.70;99.90
31639;DHT22;18248;51.522;7.020;2022-11-14T12:12:38;10.80;99.90
31639;DHT22;18248;51.522;7.020;2022-11-14T12:18:56;11.00;99.90
31639;DHT22;18248;51.522;7.020;2022-11-14T12:29:26;11.10;99.90
31639;DHT22;18248;51.522;7.020;2022-11-14T12:32:35;11.10;99.90
31639;DHT22;18248;51.522;7.020;2022-11-14T12:35:36;11.20;99.90
31639;DHT22;18248;51.522;7.020;2022-11-14T12:38:49;11.20;99.90
31639;DHT22;18248;51.522;7.020;2022-11-14T12:41:49;11.30;99.90
31639;DHT22;18248;51.522;7.020;2022-11-14T12:44:47;11.40;99.90
31639;DHT22;18248;51.522;7.020;2022-11-14T12:54:46;11.50;99.90
31639;DHT22;18248;51.522;7.020;2022-11-14T13:04:17;11.50;99.90
31639;DHT22;18248;51.522;7.020;2022-11-14T13:10:49;11.40;99.90
31639;DHT22;18248;51.522;7.020;2022-11-14T13:14:00;11.40;99.90
31639;DHT22;18248;51.522;7.020;2022-11-14T13:17:24;11.40;99.90
31639;DHT22;18248;51.522;7.020;2022-11-14T13:20:41;11.30;99.90
31639;DHT22;18248;51.522;7.020;2022-11-14T13:24:18;11.30;99.90
31639;DHT22;18248;51.522;7.020;2022-11-14T13:27:31;11.30;99.90
31639;DHT22;18248;51.522;7.020;2022-11-14T13:31:04;11.40;99.90
31639;DHT22;18248;51.522;7.020;2022-11-14T13:34:31;11.40;99.90
31639;DHT22;18248;51.522;7.020;2022-11-14T13:44:42;11.40;99.90
31639;DHT22;18248;51.522;7.020;2022-11-14T13:48:07;11.40;99.90
31639;DHT22;18248;51.522;7.020;2022-11-14T13:51:13;11.40;99.90
31639;DHT22;18248;51.522;7.020;2022-11-14T13:54:14;11.40;99.90
31639;DHT22;18248;51.522;7.020;2022-11-14T13:57:26;11.50;99.90
31639;DHT22;18248;51.522;7.020;2022-11-14T14:00:29;11.50;99.90
31639;DHT22;18248;51.522;7.020;2022-11-14T14:10:22;11.50;99.90
31639;DHT22;18248;51.522;7.020;2022-11-14T14:13:29;11.50;99.90
31639;DHT22;18248;51.522;7.020;2022-11-14T14:16:39;11.60;99.90
31639;DHT22;18248;51.522;7.020;2022-11-14T14:20:04;11.60;99.90
31639;DHT22;18248;51.522;7.020;2022-11-14T14:26:55;11.60;99.90
31639;DHT22;18248;51.522;7.020;2022-11-14T14:30:10;11.60;99.90
31639;DHT22;18248;51.522;7.020;2022-11-14T14:33:14;11.50;99.90
31639;DHT22;18248;51.522;7.020;2022-11-14T14:36:21;11.60;99.90
31639;DHT22;18248;51.522;7.020;2022-11-14T14:39:22;11.50;99.90
31639;DHT22;18248;51.522;7.020;2022-11-14T14:42:23;11.50;99.90
31639;DHT22;18248;51.522;7.020;2022-11-14T14:45:24;11.50;99.90
31639;DHT22;18248;51.522;7.020;2022-11-14T14:48:26;11.50;99.90
31639;DHT22;18248;51.522;7.020;2022-11-14T14:51:34;11.50;99.90
31639;DHT22;18248;51.522;7.020;2022-11-14T14:54:33;11.50;99.90
31639;DHT22;18248;51.522;7.020;2022-11-14T14:57:32;11.50;99.90
31639;DHT22;18248;51.522;7.020;2022-11-14T15:00:30;11.60;99.90
31639;DHT22;18248;51.522;7.020;2022-11-14T15:03:32;11.60;99.90
31639;DHT22;18248;51.522;7.020;2022-11-14T15:06:33;11.60;99.90
31639;DHT22;18248;51.522;7.020;2022-11-14T15:09:33;11.60;99.90
31639;DHT22;18248;51.522;7.020;2022-11-14T15:12:31;11.50;99.90
31639;DHT22;18248;51.522;7.020;2022-11-14T15:15:32;11.50;99.90
31639;DHT22;18248;51.522;7.020;2022-11-14T15:18:31;11.50;99.90
31639;DHT22;18248;51.522;7.020;2022-11-14T15:21:30;11.50;99.90
31639;DHT22;18248;51.522;7.020;2022-11-14T15:24:30;11.50;99.90
31639;DHT22;18248;51.522;7.020;2022-11-14T15:27:29;11.50;99.90
31639;DHT22;18248;51.522;7.020;2022-11-14T15:30:32;11.50;99.90
31639;DHT22;18248;51.522;7.020;2022-11-14T15:33:34;11.50;99.90
31639;DHT22;18248;51.522;7.020;2022-11-14T15:36:34;11.50;99.90
31639;DHT22;18248;51.522;7.020;2022-11-14T15:39:32;11.40;99.90
31639;DHT22;18248;51.522;7.020;2022-11-14T15:42:31;11.40;99.90
31639;DHT22;18248;51.522;7.020;2022-11-14T15:45:39;11.30;99.90
31639;DHT22;18248;51.522;7.020;2022-11-14T15:48:40;11.30;99.90
31639;DHT22;18248;51.522;7.020;2022-11-14T15:51:48;11.30;99.90
31639;DHT22;18248;51.522;7.020;2022-11-14T15:54:48;11.20;99.90
31639;DHT22;18248;51.522;7.020;2022-11-14T15:57:46;11.20;99.90
31639;DHT22;18248;51.522;7.020;2022-11-14T16:00:48;11.20;99.90
31639;DHT22;18248;51.522;7.020;2022-11-14T16:03:48;11.20;99.90
31639;DHT22;18248;51.522;7.020;2022-11-14T16:06:48;11.20;99.90
31639;DHT22;18248;51.522;7.020;2022-11-14T16:09:47;11.20;99.90
31639;DHT22;18248;51.522;7.020;2022-11-14T16:12:46;11.10;99.90
31639;DHT22;18248;51.522;7.020;2022-11-14T16:15:44;11.10;99.90
31639;DHT22;18248;51.522;7.020;2022-11-14T16:18:44;11.10;99.90
31639;DHT22;18248;51.522;7.020;2022-11-14T16:21:42;11.10;99.90
31639;DHT22;18248;51.522;7.020;2022-11-14T16:24:42;11.00;99.90
31639;DHT22;18248;51.522;7.020;2022-11-14T16:27:40;11.00;99.90
31639;DHT22;18248;51.522;7.020;2022-11-14T16:30:40;11.00;99.90
31639;DHT22;18248;51.522;7.020;2022-11-14T16:33:40;11.00;99.90
31639;DHT22;18248;51.522;7.020;2022-11-14T16:36:39;11.00;99.90
31639;DHT22;18248;51.522;7.020;2022-11-14T16:39:37;11.00;99.90
31639;DHT22;18248;51.522;7.020;2022-11-14T16:42:36;11.00;99.90
31639;DHT22;18248;51.522;7.020;2022-11-14T16:45:39;11.00;99.90
31639;DHT22;18248;51.522;7.020;2022-11-14T16:48:38;11.00;99.90
31639;DHT22;18248;51.522;7.020;2022-11-14T16:51:37;11.00;99.90
31639;DHT22;18248;51.522;7.020;2022-11-14T16:54:36;11.00;99.90
31639;DHT22;18248;51.522;7.020;2022-11-14T16:57:35;11.10;99.90
31639;DHT22;18248;51.522;7.020;2022-11-14T17:00:34;11.10;99.90
31639;DHT22;18248;51.522;7.020;2022-11-14T17:03:34;11.10;99.90
31639;DHT22;18248;51.522;7.020;2022-11-14T17:06:33;11.10;99.90
31639;DHT22;18248;51.522;7.020;2022-11-14T17:09:31;11.10;99.90
31639;DHT22;18248;51.522;7.020;2022-11-14T17:12:31;11.00;99.90
31639;DHT22;18248;51.522;7.020;2022-11-14T17:15:31;11.00;99.90
31639;DHT22;18248;51.522;7.020;2022-11-14T17:18:29;11.00;99.90
31639;DHT22;18248;51.522;7.020;2022-11-14T17:21:28;11.00;99.90
31639;DHT22;18248;51.522;7.020;2022-11-14T17:24:26;11.00;99.90
31639;DHT22;18248;51.522;7.020;2022-11-14T17:27:25;11.00;99.90
31639;DHT22;18248;51.522;7.020;2022-11-14T17:30:24;11.10;99.90
31639;DHT22;18248;51.522;7.020;2022-11-14T17:33:23;11.00;99.90
31639;DHT22;18248;51.522;7.020;2022-11-14T17:36:22;11.00;99.90
31639;DHT22;18248;51.522;7.020;2022-11-14T17:39:22;11.00;99.90
31639;DHT22;18248;51.522;7.020;2022-11-14T17:42:20;11.00;99.90
31639;DHT22;18248;51.522;7.020;2022-11-14T17:45:19;11.00;99.90
31639;DHT22;18248;51.522;7.020;2022-11-14T17:48:17;11.00;99.90
31639;DHT22;18248;51.522;7.020;2022-11-14T17:51:16;11.00;99.90
31639;DHT22;18248;51.522;7.020;2022-11-14T17:54:15;11.00;99.90
31639;DHT22;18248;51.522;7.020;2022-11-14T17:57:13;11.00;99.90
31639;DHT22;18248;51.522;7.020;2022-11-14T18:00:12;10.90;99.90
31639;DHT22;18248;51.522;7.020;2022-11-14T18:03:11;10.90;99.90
31639;DHT22;18248;51.522;7.020;2022-11-14T18:06:11;10.90;99.90
31639;DHT22;18248;51.522;7.020;2022-11-14T18:09:12;10.80;99.90
31639;DHT22;18248;51.522;7.020;2022-11-14T18:12:10;10.90;99.90
31639;DHT22;18248;51.522;7.020;2022-11-14T18:15:09;10.80;99.90
31639;DHT22;18248;51.522;7.020;2022-11-14T18:18:07;10.80;99.90
31639;DHT22;18248;51.522;7.020;2022-11-14T18:21:11;10.70;99.90
31639;DHT22;18248;51.522;7.020;2022-11-14T18:24:11;10.70;99.90
31639;DHT22;18248;51.522;7.020;2022-11-14T18:27:10;10.70;99.90
31639;DHT22;18248;51.522;7.020;2022-11-14T18:30:09;10.70;99.90
31639;DHT22;18248;51.522;7.020;2022-11-14T18:33:08;10.70;99.90
31639;DHT22;18248;51.522;7.020;2022-11-14T18:36:10;10.70;99.90
31639;DHT22;18248;51.522;7.020;2022-11-14T18:39:09;10.70;99.90
31639;DHT22;18248;51.522;7.020;2022-11-14T18:42:09;10.70;99.90
31639;DHT22;18248;51.522;7.020;2022-11-14T18:45:08;10.70;99.90
31639;DHT22;18248;51.522;7.020;2022-11-14T18:48:07;10.70;99.90
31639;DHT22;18248;51.522;7.020;2022-11-14T18:51:10;10.70;99.90
31639;DHT22;18248;51.522;7.020;2022-11-14T18:54:10;10.60;99.90
31639;DHT22;18248;51.522;7.020;2022-11-14T18:57:09;10.60;99.90
31639;DHT22;18248;51.522;7.020;2022-11-14T19:00:08;10.70;99.90
31639;DHT22;18248;51.522;7.020;2022-11-14T19:03:08;10.60;99.90
31639;DHT22;18248;51.522;7.020;2022-11-14T19:06:10;10.60;99.90
31639;DHT22;18248;51.522;7.020;2022-11-14T19:09:10;10.60;99.90
31639;DHT22;18248;51.522;7.020;2022-11-14T19:12:10;10.60;99.90
31639;DHT22;18248;51.522;7.020;2022-11-14T19:15:19;10.60;99.90
31639;DHT22;18248;51.522;7.020;2022-11-14T19:18:17;10.60;99.90
31639;DHT22;18248;51.522;7.020;2022-11-14T19:21:16;10.50;99.90
31639;DHT22;18248;51.522;7.020;2022-11-14T19:24:15;10.50;99.90
31639;DHT22;18248;51.522;7.020;2022-11-14T19:27:14;10.50;99.90
31639;DHT22;18248;51.522;7.020;2022-11-14T19:30:15;10.50;99.90
31639;DHT22;18248;51.522;7.020;2022-11-14T19:33:14;10.50;99.90
31639;DHT22;18248;51.522;7.020;2022-11-14T19:36:16;10.40;99.90
31639;DHT22;18248;51.522;7.020;2022-11-14T19:39:15;10.40;99.90
31639;DHT22;18248;51.522;7.020;2022-11-14T19:42:14;10.40;99.90
31639;DHT22;18248;51.522;7.020;2022-11-14T19:45:14;10.40;99.90
31639;DHT22;18248;51.522;7.020;2022-11-14T19:48:12;10.30;99.90
31639;DHT22;18248;51.522;7.020;2022-11-14T19:51:13;10.30;99.90
31639;DHT22;18248;51.522;7.020;2022-11-14T19:54:12;10.20;99.90
31639;DHT22;18248;51.522;7.020;2022-11-14T19:57:10;10.10;99.90
31639;DHT22;18248;51.522;7.020;2022-11-14T20:00:09;10.10;99.90
31639;DHT22;18248;51.522;7.020;2022-11-14T20:03:10;10.10;99.90
31639;DHT22;18248;51.522;7.020;2022-11-14T20:06:38;10.00;99.90
31639;DHT22;18248;51.522;7.020;2022-11-14T20:09:37;9.90;99.90
31639;DHT22;18248;51.522;7.020;2022-11-14T20:12:36;9.90;99.90
31639;DHT22;18248;51.522;7.020;2022-11-14T20:15:34;9.90;99.90
31639;DHT22;18248;51.522;7.020;2022-11-14T20:18:33;9.80;99.90
31639;DHT22;18248;51.522;7.020;2022-11-14T20:21:32;9.80;99.90
31639;DHT22;18248;51.522;7.020;2022-11-14T20:24:31;9.80;99.90
31639;DHT22;18248;51.522;7.020;2022-11-14T20:27:29;9.80;99.90
31639;DHT22;18248;51.522;7.020;2022-11-14T20:30:28;9.70;99.90
31639;DHT22;18248;51.522;7.020;2022-11-14T20:33:28;9.70;99.90
31639;DHT22;18248;51.522;7.020;2022-11-14T20:36:27;9.60;99.90
31639;DHT22;18248;51.522;7.020;2022-11-14T20:39:26;9.60;99.90
31639;DHT22;18248;51.522;7.020;2022-11-14T20:42:24;9.50;99.90